DFW weather

Dallas Fort Worth International Airport
Dallas-Fort Worth, Texas, United States

Public forecast

Using degrees Fahrenheit for public forecast. Weather courtesy of forecast.io.

METAR (pilot weather report)

Retrieved 2018/01/20 17:53 UTC (1 hour ago):

KDFW 201753Z 18017G25KT 10SM FEW020 BKN250 20/11 A2995 RMK AO2 PK WND 19027/1719 SLP138 T02000111 10200 20128 58006

TAF (pilot weather forecast)

Retrieved 2018/01/20 18:33 UTC (22 minutes ago):

TAF KDFW 201730Z 2018/2124 18020KT P6SM SCT017 FM210300 17015KT P6SM OVC012 FM210800 17016KT 5SM BR OVC008 FM211500 19017KT P6SM OVC017 FM211700 21018KT P6SM VCSH BKN028 FM211900 23021KT P6SM FEW025